createdAt,value
2023-04-30T00:00:09.011Z,8.10
2023-04-30T00:05:32.489Z,8.00
2023-04-30T00:10:35.745Z,7.80
2023-04-30T00:15:39.069Z,7.70
2023-04-30T00:20:42.169Z,7.50
2023-04-30T00:25:45.579Z,7.40
2023-04-30T00:30:49.017Z,7.30
2023-04-30T00:35:52.323Z,7.20
2023-04-30T00:40:55.626Z,7.10
2023-04-30T00:46:04.239Z,7.10
2023-04-30T00:51:07.707Z,7.00
2023-04-30T00:56:13.258Z,6.90
2023-04-30T01:01:16.705Z,6.80
2023-04-30T01:06:20.191Z,6.70
2023-04-30T01:11:35.073Z,6.60
2023-04-30T01:16:53.564Z,6.40
2023-04-30T01:22:02.011Z,6.40
2023-04-30T01:27:20.385Z,6.30
2023-04-30T01:32:23.787Z,6.20
2023-04-30T01:37:45.532Z,6.20
2023-04-30T01:43:12.884Z,6.20
2023-04-30T01:48:34.608Z,6.10
2023-04-30T01:53:44.394Z,6.00
2023-04-30T01:58:50.437Z,5.90
2023-04-30T02:03:53.762Z,5.80
2023-04-30T02:09:02.995Z,5.60
2023-04-30T02:14:06.573Z,5.50
2023-04-30T02:19:10.081Z,5.40
2023-04-30T02:24:13.234Z,5.40
2023-04-30T02:29:17.735Z,5.30
2023-04-30T02:34:21.337Z,5.30
2023-04-30T02:39:24.620Z,5.30
2023-04-30T02:44:27.863Z,5.30
2023-04-30T02:49:31.109Z,5.10
2023-04-30T02:54:34.947Z,5.10
2023-04-30T02:59:39.194Z,5.00
2023-04-30T03:04:42.602Z,4.90
2023-04-30T03:09:46.941Z,4.90
2023-04-30T03:14:50.191Z,4.80
2023-04-30T03:19:53.801Z,4.80
2023-04-30T03:24:57.412Z,4.80
2023-04-30T03:30:00.723Z,4.70
2023-04-30T03:35:04.559Z,4.70
2023-04-30T03:40:08.953Z,4.70
2023-04-30T03:45:12.197Z,4.70
2023-04-30T03:50:15.734Z,4.70
2023-04-30T03:55:19.095Z,4.70
2023-04-30T04:00:22.324Z,4.70
2023-04-30T04:05:26.199Z,4.80
2023-04-30T04:10:29.738Z,4.80
2023-04-30T04:15:33.713Z,4.80
2023-04-30T04:20:36.884Z,4.90
2023-04-30T04:25:40.161Z,4.90
2023-04-30T04:30:43.653Z,5.00
2023-04-30T04:35:46.856Z,5.00
2023-04-30T04:40:54.673Z,5.10
2023-04-30T04:45:57.977Z,5.20
2023-04-30T04:51:01.633Z,5.20
2023-04-30T04:56:05.416Z,5.30
2023-04-30T05:01:09.593Z,5.40
2023-04-30T05:06:12.902Z,5.50
2023-04-30T05:11:17.097Z,5.60
2023-04-30T05:16:20.796Z,5.70
2023-04-30T05:21:24.106Z,5.90
2023-04-30T05:26:27.565Z,6.00
2023-04-30T05:31:32.785Z,6.20
2023-04-30T05:36:36.014Z,6.30
2023-04-30T05:41:39.287Z,6.30
2023-04-30T05:46:42.933Z,6.50
2023-04-30T05:51:46.495Z,6.60
2023-04-30T05:56:49.799Z,6.80
2023-04-30T06:01:53.369Z,6.90
2023-04-30T06:06:56.688Z,7.10
2023-04-30T06:12:00.051Z,7.30
2023-04-30T06:17:03.787Z,7.30
2023-04-30T06:22:16.181Z,7.40
2023-04-30T06:27:22.718Z,7.60
2023-04-30T06:32:26.427Z,7.80
2023-04-30T06:37:31.465Z,8.00
2023-04-30T06:42:39.617Z,8.10
2023-04-30T06:47:43.388Z,8.30
2023-04-30T06:52:46.644Z,8.60
2023-04-30T06:57:49.876Z,8.80
2023-04-30T07:02:53.556Z,9.00
2023-04-30T07:07:58.171Z,9.20
2023-04-30T07:13:03.453Z,9.40
2023-04-30T07:18:09.457Z,9.60
2023-04-30T07:23:13.240Z,9.70
2023-04-30T07:28:17.350Z,9.80
2023-04-30T07:33:20.973Z,10.00
2023-04-30T07:38:24.299Z,10.10
2023-04-30T07:43:27.429Z,10.50
2023-04-30T07:48:31.230Z,10.70
2023-04-30T07:53:34.801Z,10.80
2023-04-30T07:58:37.996Z,10.70
2023-04-30T08:03:41.296Z,10.80
2023-04-30T08:08:44.517Z,11.10
2023-04-30T08:13:48.306Z,11.20
2023-04-30T08:18:58.820Z,11.20
2023-04-30T08:24:02.785Z,11.20
2023-04-30T08:29:06.109Z,11.30
2023-04-30T08:34:09.373Z,11.50
2023-04-30T08:39:13.577Z,11.60
2023-04-30T08:44:23.957Z,11.70
2023-04-30T08:49:28.668Z,11.80
2023-04-30T08:54:33.185Z,11.70
2023-04-30T08:59:36.778Z,12.00
2023-04-30T09:04:39.924Z,12.00
2023-04-30T09:09:43.359Z,12.10
2023-04-30T09:15:19.215Z,12.30
2023-04-30T09:20:24.463Z,12.30
2023-04-30T09:25:40.228Z,12.40
2023-04-30T09:30:43.873Z,12.60
2023-04-30T09:35:47.311Z,12.70
2023-04-30T09:40:50.790Z,12.80
2023-04-30T09:45:54.184Z,13.10
2023-04-30T09:50:57.536Z,13.10
2023-04-30T09:56:07.580Z,13.10
2023-04-30T10:01:14.103Z,13.10
2023-04-30T10:06:19.849Z,13.30
2023-04-30T10:11:28.472Z,13.40
2023-04-30T10:16:41.323Z,13.60
2023-04-30T10:21:47.290Z,13.60
2023-04-30T10:26:50.917Z,13.70
2023-04-30T10:32:04.857Z,14.00
2023-04-30T10:37:25.126Z,14.20
2023-04-30T10:42:28.976Z,14.30
2023-04-30T10:47:32.763Z,14.20
2023-04-30T10:52:43.292Z,14.10
2023-04-30T10:57:48.785Z,13.90
2023-04-30T11:02:58.491Z,14.00
2023-04-30T11:08:04.918Z,14.20
2023-04-30T11:13:10.655Z,14.50
2023-04-30T11:18:15.030Z,14.70
2023-04-30T11:23:38.230Z,14.80
2023-04-30T11:28:55.322Z,15.00
2023-04-30T11:34:01.048Z,14.70
2023-04-30T11:39:08.349Z,14.60
2023-04-30T11:44:27.860Z,14.90
2023-04-30T11:49:33.111Z,15.00
2023-04-30T11:54:40.403Z,15.20
2023-04-30T11:59:44.107Z,15.30
2023-04-30T12:04:51.670Z,15.50
2023-04-30T12:10:01.839Z,15.40
2023-04-30T12:15:21.036Z,14.90
2023-04-30T12:20:29.698Z,14.40
2023-04-30T12:25:41.457Z,14.30
2023-04-30T12:30:47.821Z,14.60
2023-04-30T12:35:54.472Z,14.40
2023-04-30T12:41:00.684Z,14.50
2023-04-30T12:46:04.860Z,14.70
2023-04-30T12:51:12.997Z,15.00
2023-04-30T12:56:20.196Z,15.40
2023-04-30T13:01:25.893Z,15.60
2023-04-30T13:06:33.549Z,15.80
2023-04-30T13:11:38.152Z,15.70
2023-04-30T13:16:42.287Z,15.80
2023-04-30T13:21:46.326Z,15.90
2023-04-30T13:26:50.042Z,16.20
2023-04-30T13:31:57.063Z,16.10
2023-04-30T13:37:00.903Z,16.20
2023-04-30T13:42:05.594Z,16.50
2023-04-30T13:47:11.334Z,16.50
2023-04-30T13:52:15.850Z,16.50
2023-04-30T13:57:19.476Z,16.50
2023-04-30T14:02:23.623Z,16.30
2023-04-30T14:07:27.424Z,16.20
2023-04-30T14:12:32.501Z,16.10
2023-04-30T14:17:36.134Z,16.30
2023-04-30T14:22:43.097Z,16.40
2023-04-30T14:27:46.598Z,16.60
2023-04-30T14:32:52.848Z,17.10
2023-04-30T14:37:56.209Z,17.40
2023-04-30T14:42:59.524Z,18.20
2023-04-30T14:48:05.169Z,19.60
2023-04-30T14:53:09.883Z,20.60
2023-04-30T14:58:15.549Z,21.40
2023-04-30T15:03:19.349Z,21.10
2023-04-30T15:08:23.857Z,19.90
2023-04-30T15:13:28.858Z,20.50
2023-04-30T15:18:33.197Z,20.50
2023-04-30T15:23:39.697Z,21.20
2023-04-30T15:28:43.577Z,22.10
2023-04-30T15:33:46.866Z,22.50
2023-04-30T15:38:50.244Z,22.10
2023-04-30T15:43:53.922Z,21.80
2023-04-30T15:48:57.448Z,21.30
2023-04-30T15:54:02.778Z,20.80
2023-04-30T15:59:09.288Z,20.50
2023-04-30T16:04:12.893Z,20.50
2023-04-30T16:09:23.083Z,20.10
2023-04-30T16:14:26.303Z,19.70
2023-04-30T16:19:29.539Z,19.70
2023-04-30T16:24:32.830Z,20.00
2023-04-30T16:29:36.977Z,20.00
2023-04-30T16:34:44.905Z,19.70
2023-04-30T16:39:51.469Z,19.00
2023-04-30T16:44:56.181Z,18.80
2023-04-30T16:49:59.913Z,18.60
2023-04-30T16:55:05.395Z,18.80
2023-04-30T17:00:12.021Z,19.40
2023-04-30T17:05:16.486Z,19.80
2023-04-30T17:10:20.100Z,20.00
2023-04-30T17:15:24.012Z,19.60
2023-04-30T17:20:28.049Z,19.00
2023-04-30T17:25:34.009Z,18.10
2023-04-30T17:30:37.685Z,17.90
2023-04-30T17:35:42.602Z,17.50
2023-04-30T17:40:46.501Z,17.50
2023-04-30T17:45:55.179Z,16.50
2023-04-30T17:50:59.989Z,15.30
2023-04-30T17:56:06.584Z,14.30
2023-04-30T18:01:11.162Z,13.70
2023-04-30T18:06:15.416Z,13.30
2023-04-30T18:11:19.846Z,13.00
2023-04-30T18:16:24.566Z,12.60
2023-04-30T18:21:29.348Z,12.30
2023-04-30T18:26:33.144Z,12.00
2023-04-30T18:31:38.239Z,11.80
2023-04-30T18:36:44.628Z,11.50
2023-04-30T18:41:50.203Z,11.30
2023-04-30T18:46:57.225Z,11.10
2023-04-30T18:52:02.626Z,10.90
2023-04-30T18:57:12.002Z,10.60
2023-04-30T19:02:17.009Z,10.50
2023-04-30T19:07:24.039Z,10.20
2023-04-30T19:12:30.685Z,10.10
2023-04-30T19:17:35.860Z,9.90
2023-04-30T19:22:41.354Z,9.90
2023-04-30T19:27:46.339Z,9.70
2023-04-30T19:32:52.087Z,9.70
2023-04-30T19:37:58.151Z,9.50
2023-04-30T19:43:04.722Z,9.40
2023-04-30T19:48:15.750Z,9.30
2023-04-30T19:53:19.307Z,9.10
2023-04-30T19:58:25.116Z,9.00
2023-04-30T20:03:29.814Z,8.80
2023-04-30T20:08:34.088Z,8.70
2023-04-30T20:13:41.282Z,8.50
2023-04-30T20:18:49.244Z,8.40
2023-04-30T20:23:53.613Z,8.30
2023-04-30T20:28:58.028Z,8.00
2023-04-30T20:34:06.467Z,8.00
2023-04-30T20:39:12.279Z,8.00
2023-04-30T20:44:17.148Z,7.80
2023-04-30T20:49:21.026Z,7.70
2023-04-30T20:54:26.094Z,7.40
2023-04-30T20:59:31.024Z,7.40
2023-04-30T21:04:34.594Z,7.30
2023-04-30T21:09:38.708Z,7.10
2023-04-30T21:14:41.994Z,6.90
2023-04-30T21:19:45.727Z,6.80
2023-04-30T21:24:52.442Z,6.80
2023-04-30T21:29:56.375Z,6.70
2023-04-30T21:34:59.836Z,6.60
2023-04-30T21:40:04.045Z,6.60
2023-04-30T21:45:09.280Z,6.60
2023-04-30T21:50:12.802Z,6.60
2023-04-30T21:55:15.971Z,6.50
2023-04-30T22:00:19.918Z,6.30
2023-04-30T22:05:23.086Z,6.20
2023-04-30T22:10:26.313Z,6.00
2023-04-30T22:15:40.699Z,5.80
2023-04-30T22:20:51.444Z,5.50
2023-04-30T22:25:55.052Z,5.40
2023-04-30T22:31:00.051Z,5.20
2023-04-30T22:36:05.613Z,5.10
2023-04-30T22:41:09.125Z,5.10
2023-04-30T22:46:14.119Z,4.90
2023-04-30T22:51:18.067Z,4.80
2023-04-30T22:56:21.303Z,4.60
2023-04-30T23:01:24.570Z,4.50
2023-04-30T23:06:30.262Z,4.30
2023-04-30T23:11:33.614Z,4.20
2023-04-30T23:16:40.448Z,4.10
2023-04-30T23:21:43.713Z,4.00
2023-04-30T23:26:47.690Z,3.90
2023-04-30T23:31:51.449Z,3.70
2023-04-30T23:36:54.715Z,3.60
2023-04-30T23:41:57.908Z,3.40
2023-04-30T23:47:01.315Z,3.30
2023-04-30T23:52:05.388Z,3.20
2023-04-30T23:57:08.645Z,3.00
